sensor_id;sensor_type;location;lat;lon;timestamp;pressure;altitude;pressure_sealevel;temperature;humidity
22662;BME280;11497;52.222;21.246;2023-04-05T00:00:51;100994.50;;;-3.02;94.93
22662;BME280;11497;52.222;21.246;2023-04-05T00:03:20;100996.00;;;-3.10;95.51
22662;BME280;11497;52.222;21.246;2023-04-05T00:05:48;100992.50;;;-3.12;95.53
22662;BME280;11497;52.222;21.246;2023-04-05T00:08:16;100986.38;;;-3.17;95.61
22662;BME280;11497;52.222;21.246;2023-04-05T00:10:50;100987.19;;;-3.18;95.90
22662;BME280;11497;52.222;21.246;2023-04-05T00:13:18;100993.19;;;-3.17;96.21
22662;BME280;11497;52.222;21.246;2023-04-05T00:15:46;100983.91;;;-3.14;96.35
22662;BME280;11497;52.222;21.246;2023-04-05T00:18:14;100986.09;;;-2.97;96.78
22662;BME280;11497;52.222;21.246;2023-04-05T00:20:51;100985.84;;;-3.07;96.65
22662;BME280;11497;52.222;21.246;2023-04-05T00:23:19;100980.72;;;-3.07;97.05
22662;BME280;11497;52.222;21.246;2023-04-05T00:25:51;100971.22;;;-3.11;96.66
22662;BME280;11497;52.222;21.246;2023-04-05T00:28:19;100975.50;;;-3.10;97.32
22662;BME280;11497;52.222;21.246;2023-04-05T00:30:47;100970.19;;;-3.16;97.13
22662;BME280;11497;52.222;21.246;2023-04-05T00:33:15;100972.22;;;-3.06;97.35
22662;BME280;11497;52.222;21.246;2023-04-05T00:35:43;100964.50;;;-3.07;97.53
22662;BME280;11497;52.222;21.246;2023-04-05T00:38:10;100965.34;;;-3.07;97.68
22662;BME280;11497;52.222;21.246;2023-04-05T00:40:37;100965.84;;;-3.18;97.80
22662;BME280;11497;52.222;21.246;2023-04-05T00:43:06;100959.66;;;-3.25;97.67
22662;BME280;11497;52.222;21.246;2023-04-05T00:45:33;100958.94;;;-3.21;97.94
22662;BME280;11497;52.222;21.246;2023-04-05T00:48:02;100960.44;;;-3.27;97.95
22662;BME280;11497;52.222;21.246;2023-04-05T00:50:29;100961.09;;;-3.06;98.54
22662;BME280;11497;52.222;21.246;2023-04-05T00:52:57;100956.75;;;-3.09;98.40
22662;BME280;11497;52.222;21.246;2023-04-05T00:55:25;100956.03;;;-3.03;98.53
22662;BME280;11497;52.222;21.246;2023-04-05T00:57:53;100953.53;;;-3.02;98.25
22662;BME280;11497;52.222;21.246;2023-04-05T01:00:22;100955.34;;;-2.71;98.63
22662;BME280;11497;52.222;21.246;2023-04-05T01:02:51;100949.53;;;-2.65;98.66
22662;BME280;11497;52.222;21.246;2023-04-05T01:05:23;100947.34;;;-2.81;98.43
22662;BME280;11497;52.222;21.246;2023-04-05T01:08:09;100951.44;;;-2.56;98.47
22662;BME280;11497;52.222;21.246;2023-04-05T01:10:41;100954.19;;;-2.50;97.74
22662;BME280;11497;52.222;21.246;2023-04-05T01:13:10;100953.69;;;-2.39;97.94
22662;BME280;11497;52.222;21.246;2023-04-05T01:15:37;100954.19;;;-2.50;97.14
22662;BME280;11497;52.222;21.246;2023-04-05T01:18:06;100954.38;;;-2.74;97.03
22662;BME280;11497;52.222;21.246;2023-04-05T01:20:37;100944.50;;;-2.90;96.77
22662;BME280;11497;52.222;21.246;2023-04-05T01:28:12;100955.97;;;-3.33;96.74
22662;BME280;11497;52.222;21.246;2023-04-05T01:30:53;100953.78;;;-3.49;96.80
22662;BME280;11497;52.222;21.246;2023-04-05T01:35:58;100954.41;;;-3.56;96.96
22662;BME280;11497;52.222;21.246;2023-04-05T01:38:29;100954.44;;;-3.55;97.17
22662;BME280;11497;52.222;21.246;2023-04-05T01:40:58;100950.19;;;-3.54;97.27
22662;BME280;11497;52.222;21.246;2023-04-05T01:43:26;100945.75;;;-3.60;97.35
22662;BME280;11497;52.222;21.246;2023-04-05T01:45:54;100954.91;;;-3.66;97.61
22662;BME280;11497;52.222;21.246;2023-04-05T01:48:21;100958.53;;;-3.60;97.74
22662;BME280;11497;52.222;21.246;2023-04-05T01:50:49;100947.19;;;-3.68;97.73
22662;BME280;11497;52.222;21.246;2023-04-05T01:53:18;100951.88;;;-3.80;97.86
22662;BME280;11497;52.222;21.246;2023-04-05T01:55:45;100958.06;;;-3.74;98.18
22662;BME280;11497;52.222;21.246;2023-04-05T01:58:13;100952.69;;;-3.81;98.21
22662;BME280;11497;52.222;21.246;2023-04-05T02:00:41;100956.03;;;-3.84;98.20
22662;BME280;11497;52.222;21.246;2023-04-05T02:03:10;100954.72;;;-3.98;98.32
22662;BME280;11497;52.222;21.246;2023-04-05T02:05:37;100953.69;;;-4.03;98.45
22662;BME280;11497;52.222;21.246;2023-04-05T02:08:05;100953.69;;;-4.03;98.46
22662;BME280;11497;52.222;21.246;2023-04-05T02:10:33;100951.00;;;-4.06;98.80
22662;BME280;11497;52.222;21.246;2023-04-05T02:13:01;100955.97;;;-4.11;99.07
22662;BME280;11497;52.222;21.246;2023-04-05T02:15:29;100953.34;;;-4.12;99.05
22662;BME280;11497;52.222;21.246;2023-04-05T02:17:58;100951.41;;;-4.19;99.06
22662;BME280;11497;52.222;21.246;2023-04-05T02:20:29;100952.09;;;-4.23;99.05
22662;BME280;11497;52.222;21.246;2023-04-05T02:22:56;100949.34;;;-4.29;99.19
22662;BME280;11497;52.222;21.246;2023-04-05T02:25:24;100952.66;;;-4.32;99.38
22662;BME280;11497;52.222;21.246;2023-04-05T02:27:52;100954.78;;;-4.20;99.62
22662;BME280;11497;52.222;21.246;2023-04-05T02:30:20;100953.63;;;-4.28;99.53
22662;BME280;11497;52.222;21.246;2023-04-05T02:32:48;100954.56;;;-4.26;99.63
22662;BME280;11497;52.222;21.246;2023-04-05T02:35:16;100950.88;;;-4.34;99.67
22662;BME280;11497;52.222;21.246;2023-04-05T02:37:44;100948.34;;;-4.33;100.00
22662;BME280;11497;52.222;21.246;2023-04-05T02:40:12;100949.34;;;-4.29;100.00
22662;BME280;11497;52.222;21.246;2023-04-05T02:42:41;100946.50;;;-4.13;100.00
22662;BME280;11497;52.222;21.246;2023-04-05T02:45:10;100952.81;;;-4.27;100.00
22662;BME280;11497;52.222;21.246;2023-04-05T02:47:38;100941.47;;;-4.36;99.96
22662;BME280;11497;52.222;21.246;2023-04-05T02:50:06;100947.25;;;-4.41;100.00
22662;BME280;11497;52.222;21.246;2023-04-05T02:52:40;100945.56;;;-4.41;100.00
22662;BME280;11497;52.222;21.246;2023-04-05T02:55:08;100952.28;;;-4.43;100.00
22662;BME280;11497;52.222;21.246;2023-04-05T02:57:36;100949.75;;;-4.43;100.00
22662;BME280;11497;52.222;21.246;2023-04-05T03:00:20;100950.88;;;-4.34;100.00
22662;BME280;11497;52.222;21.246;2023-04-05T03:02:49;100949.97;;;-4.37;100.00
22662;BME280;11497;52.222;21.246;2023-04-05T03:05:17;100944.16;;;-4.31;100.00
22662;BME280;11497;52.222;21.246;2023-04-05T03:07:50;100945.31;;;-4.23;100.00
22662;BME280;11497;52.222;21.246;2023-04-05T03:10:22;100944.22;;;-4.29;100.00
22662;BME280;11497;52.222;21.246;2023-04-05T03:12:56;100948.94;;;-4.42;100.00
22662;BME280;11497;52.222;21.246;2023-04-05T03:15:27;100948.59;;;-4.51;100.00
22662;BME280;11497;52.222;21.246;2023-04-05T03:17:57;100951.78;;;-4.56;100.00
22662;BME280;11497;52.222;21.246;2023-04-05T03:20:25;100949.47;;;-4.50;100.00
22662;BME280;11497;52.222;21.246;2023-04-05T03:22:57;100942.59;;;-4.51;100.00
22662;BME280;11497;52.222;21.246;2023-04-05T03:25:29;100945.09;;;-4.53;100.00
22662;BME280;11497;52.222;21.246;2023-04-05T03:27:57;100946.84;;;-4.52;100.00
22662;BME280;11497;52.222;21.246;2023-04-05T03:30:33;100943.53;;;-4.49;100.00
22662;BME280;11497;52.222;21.246;2023-04-05T03:33:12;100944.41;;;-4.49;100.00
22662;BME280;11497;52.222;21.246;2023-04-05T03:35:44;100951.31;;;-4.46;100.00
22662;BME280;11497;52.222;21.246;2023-04-05T03:38:13;100944.22;;;-4.29;100.00
22662;BME280;11497;52.222;21.246;2023-04-05T03:40:48;100942.59;;;-4.27;100.00
22662;BME280;11497;52.222;21.246;2023-04-05T03:43:16;100949.06;;;-4.13;100.00
22662;BME280;11497;52.222;21.246;2023-04-05T03:45:44;100942.81;;;-4.21;100.00
22662;BME280;11497;52.222;21.246;2023-04-05T03:48:12;100951.41;;;-4.19;100.00
22662;BME280;11497;52.222;21.246;2023-04-05T03:50:40;100946.50;;;-4.13;100.00
22662;BME280;11497;52.222;21.246;2023-04-05T03:53:07;100953.47;;;-4.09;100.00
22662;BME280;11497;52.222;21.246;2023-04-05T03:55:37;100949.44;;;-4.03;100.00
22662;BME280;11497;52.222;21.246;2023-04-05T03:58:06;100942.84;;;-3.96;100.00
22662;BME280;11497;52.222;21.246;2023-04-05T04:00:35;100938.94;;;-3.85;100.00
22662;BME280;11497;52.222;21.246;2023-04-05T04:03:21;100942.13;;;-3.66;100.00
22662;BME280;11497;52.222;21.246;2023-04-05T04:05:51;100938.53;;;-3.45;100.00
22662;BME280;11497;52.222;21.246;2023-04-05T04:08:20;100951.16;;;-3.24;100.00
22662;BME280;11497;52.222;21.246;2023-04-05T04:10:48;100947.97;;;-3.17;100.00
22662;BME280;11497;52.222;21.246;2023-04-05T04:13:23;100950.25;;;-2.97;100.00
22662;BME280;11497;52.222;21.246;2023-04-05T04:16:02;100947.28;;;-2.83;100.00
22662;BME280;11497;52.222;21.246;2023-04-05T04:18:56;100961.31;;;-2.70;100.00
22662;BME280;11497;52.222;21.246;2023-04-05T04:21:24;100953.09;;;-2.60;100.00
22662;BME280;11497;52.222;21.246;2023-04-05T04:24:15;100958.44;;;-2.51;100.00
22662;BME280;11497;52.222;21.246;2023-04-05T04:27:04;100957.63;;;-2.50;100.00
22662;BME280;11497;52.222;21.246;2023-04-05T04:29:59;100959.06;;;-2.29;100.00
22662;BME280;11497;52.222;21.246;2023-04-05T04:32:34;100954.09;;;-2.23;100.00
22662;BME280;11497;52.222;21.246;2023-04-05T04:35:41;100959.72;;;-2.05;100.00
22662;BME280;11497;52.222;21.246;2023-04-05T04:38:28;100968.06;;;-1.81;100.00
22662;BME280;11497;52.222;21.246;2023-04-05T04:41:14;100962.28;;;-1.72;99.31
22662;BME280;11497;52.222;21.246;2023-04-05T04:44:05;100960.88;;;-1.59;98.46
22662;BME280;11497;52.222;21.246;2023-04-05T04:46:42;100966.03;;;-1.59;98.33
22662;BME280;11497;52.222;21.246;2023-04-05T04:49:38;100953.63;;;-1.43;98.21
22662;BME280;11497;52.222;21.246;2023-04-05T04:52:08;100954.97;;;-1.21;97.53
22662;BME280;11497;52.222;21.246;2023-04-05T04:54:37;100953.41;;;-1.14;96.71
22662;BME280;11497;52.222;21.246;2023-04-05T04:57:08;100950.09;;;-1.10;97.04
22662;BME280;11497;52.222;21.246;2023-04-05T04:59:36;100948.75;;;-0.94;96.43
22662;BME280;11497;52.222;21.246;2023-04-05T05:02:06;100945.47;;;-0.87;95.92
22662;BME280;11497;52.222;21.246;2023-04-05T05:04:34;100950.66;;;-0.84;94.73
22662;BME280;11497;52.222;21.246;2023-04-05T05:07:02;100958.59;;;-0.74;94.39
22662;BME280;11497;52.222;21.246;2023-04-05T05:09:32;100951.19;;;-0.60;94.21
22662;BME280;11497;52.222;21.246;2023-04-05T05:12:00;100946.16;;;-0.54;93.89
22662;BME280;11497;52.222;21.246;2023-04-05T05:14:27;100962.06;;;-0.29;93.06
22662;BME280;11497;52.222;21.246;2023-04-05T05:16:55;100967.28;;;-0.26;93.22
22662;BME280;11497;52.222;21.246;2023-04-05T05:19:28;100969.31;;;-0.10;92.08
22662;BME280;11497;52.222;21.246;2023-04-05T05:21:56;100954.09;;;0.02;91.53
22662;BME280;11497;52.222;21.246;2023-04-05T05:24:24;100965.56;;;0.19;90.93
22662;BME280;11497;52.222;21.246;2023-04-05T05:26:51;100969.75;;;0.14;90.29
22662;BME280;11497;52.222;21.246;2023-04-05T05:29:19;100971.09;;;0.41;89.30
22662;BME280;11497;52.222;21.246;2023-04-05T05:31:49;100970.25;;;0.42;88.54
22662;BME280;11497;52.222;21.246;2023-04-05T05:34:16;100974.22;;;0.74;87.58
22662;BME280;11497;52.222;21.246;2023-04-05T05:36:55;100975.19;;;0.81;86.75
22662;BME280;11497;52.222;21.246;2023-04-05T05:39:23;100972.78;;;0.93;86.08
22662;BME280;11497;52.222;21.246;2023-04-05T05:41:52;100972.28;;;1.17;85.58
22662;BME280;11497;52.222;21.246;2023-04-05T05:44:19;100972.47;;;1.32;84.91
22662;BME280;11497;52.222;21.246;2023-04-05T05:46:47;100979.38;;;1.34;84.51
22662;BME280;11497;52.222;21.246;2023-04-05T05:49:15;100974.34;;;1.42;83.32
22662;BME280;11497;52.222;21.246;2023-04-05T05:51:43;100974.34;;;1.42;82.56
22662;BME280;11497;52.222;21.246;2023-04-05T05:54:10;100981.34;;;1.52;82.17
22662;BME280;11497;52.222;21.246;2023-04-05T05:56:38;100981.31;;;1.51;81.44
22662;BME280;11497;52.222;21.246;2023-04-05T05:59:06;100982.34;;;1.63;81.00
22662;BME280;11497;52.222;21.246;2023-04-05T06:01:34;100984.28;;;1.83;80.22
22662;BME280;11497;52.222;21.246;2023-04-05T06:04:04;100989.41;;;1.80;79.77
22662;BME280;11497;52.222;21.246;2023-04-05T06:06:33;100996.34;;;1.84;79.70
22662;BME280;11497;52.222;21.246;2023-04-05T06:09:04;100986.13;;;1.93;78.73
22662;BME280;11497;52.222;21.246;2023-04-05T06:11:32;100989.44;;;1.83;78.54
22662;BME280;11497;52.222;21.246;2023-04-05T06:14:00;100998.16;;;1.91;78.19
22662;BME280;11497;52.222;21.246;2023-04-05T06:16:28;100987.19;;;2.09;78.25
22662;BME280;11497;52.222;21.246;2023-04-05T06:18:57;100987.94;;;2.00;78.03
22662;BME280;11497;52.222;21.246;2023-04-05T06:21:25;100996.63;;;2.08;78.06
22662;BME280;11497;52.222;21.246;2023-04-05T06:23:53;100991.47;;;2.08;77.72
22662;BME280;11497;52.222;21.246;2023-04-05T06:26:21;101000.16;;;2.16;77.12
22662;BME280;11497;52.222;21.246;2023-04-05T06:28:50;100998.66;;;2.38;76.64
22662;BME280;11497;52.222;21.246;2023-04-05T06:31:25;100992.75;;;2.51;76.21
22662;BME280;11497;52.222;21.246;2023-04-05T06:33:53;100997.16;;;2.63;75.22
22662;BME280;11497;52.222;21.246;2023-04-05T06:36:22;100996.38;;;2.73;75.09
22662;BME280;11497;52.222;21.246;2023-04-05T06:38:52;101002.47;;;2.81;74.09
22662;BME280;11497;52.222;21.246;2023-04-05T06:41:20;101002.63;;;2.99;73.70
22662;BME280;11497;52.222;21.246;2023-04-05T06:43:47;101002.72;;;3.15;73.16
22662;BME280;11497;52.222;21.246;2023-04-05T06:46:15;101005.41;;;3.30;72.37
22662;BME280;11497;52.222;21.246;2023-04-05T06:48:43;101010.50;;;3.21;71.93
22662;BME280;11497;52.222;21.246;2023-04-05T06:51:10;101007.19;;;3.39;71.94
22662;BME280;11497;52.222;21.246;2023-04-05T06:53:37;101012.25;;;3.23;70.68
22662;BME280;11497;52.222;21.246;2023-04-05T06:56:05;101007.94;;;3.24;70.54
22662;BME280;11497;52.222;21.246;2023-04-05T06:58:33;101008.03;;;3.36;69.86
22662;BME280;11497;52.222;21.246;2023-04-05T07:01:01;101004.47;;;3.19;68.90
22662;BME280;11497;52.222;21.246;2023-04-05T07:03:29;101009.69;;;3.25;68.61
22662;BME280;11497;52.222;21.246;2023-04-05T07:05:57;101012.38;;;3.42;68.23
22662;BME280;11497;52.222;21.246;2023-04-05T07:08:26;101018.44;;;3.51;67.49
22662;BME280;11497;52.222;21.246;2023-04-05T07:10:54;101005.56;;;3.60;66.70
22662;BME280;11497;52.222;21.246;2023-04-05T07:13:22;101005.63;;;3.73;65.12
22662;BME280;11497;52.222;21.246;2023-04-05T07:15:51;101013.44;;;3.92;63.36
22662;BME280;11497;52.222;21.246;2023-04-05T07:18:26;101008.19;;;3.65;61.83
22662;BME280;11497;52.222;21.246;2023-04-05T07:20:55;101017.69;;;3.72;61.97
22662;BME280;11497;52.222;21.246;2023-04-05T07:23:26;101016.09;;;4.03;62.07
22662;BME280;11497;52.222;21.246;2023-04-05T07:25:59;101016.97;;;4.08;61.44
22662;BME280;11497;52.222;21.246;2023-04-05T07:28:26;101009.22;;;4.11;60.94
22662;BME280;11497;52.222;21.246;2023-04-05T07:30:54;101014.44;;;4.25;60.49
22662;BME280;11497;52.222;21.246;2023-04-05T07:33:22;101011.00;;;4.30;59.13
22662;BME280;11497;52.222;21.246;2023-04-05T07:35:50;101013.56;;;4.37;58.65
22662;BME280;11497;52.222;21.246;2023-04-05T07:38:18;101012.72;;;4.44;58.43
22662;BME280;11497;52.222;21.246;2023-04-05T07:40:49;101011.91;;;4.75;58.23
22662;BME280;11497;52.222;21.246;2023-04-05T07:43:17;101012.75;;;4.57;57.36
22662;BME280;11497;52.222;21.246;2023-04-05T07:45:45;101006.72;;;4.60;57.66
22662;BME280;11497;52.222;21.246;2023-04-05T07:48:13;101015.34;;;5.14;56.82
22662;BME280;11497;52.222;21.246;2023-04-05T07:50:41;101014.47;;;4.98;56.85
22662;BME280;11497;52.222;21.246;2023-04-05T07:53:13;101009.28;;;5.03;56.63
22662;BME280;11497;52.222;21.246;2023-04-05T07:55:41;101004.09;;;5.03;55.48
22662;BME280;11497;52.222;21.246;2023-04-05T07:58:09;101014.47;;;5.07;55.13
22662;BME280;11497;52.222;21.246;2023-04-05T08:00:37;101014.47;;;5.18;53.99
22662;BME280;11497;52.222;21.246;2023-04-05T08:03:05;101015.34;;;4.98;53.92
22662;BME280;11497;52.222;21.246;2023-04-05T08:05:33;101009.25;;;5.22;53.63
22662;BME280;11497;52.222;21.246;2023-04-05T08:08:01;101013.53;;;5.51;53.01
22662;BME280;11497;52.222;21.246;2023-04-05T08:10:30;101009.09;;;5.80;51.98
22662;BME280;11497;52.222;21.246;2023-04-05T08:12:57;101010.06;;;5.59;51.85
22662;BME280;11497;52.222;21.246;2023-04-05T08:15:25;101009.13;;;5.71;51.86
22662;BME280;11497;52.222;21.246;2023-04-05T08:17:53;101016.91;;;5.76;51.68
22662;BME280;11497;52.222;21.246;2023-04-05T08:20:20;101014.25;;;6.00;51.42
22662;BME280;11497;52.222;21.246;2023-04-05T08:22:48;101013.28;;;6.13;50.91
22662;BME280;11497;52.222;21.246;2023-04-05T08:25:15;101010.81;;;5.80;50.73
22662;BME280;11497;52.222;21.246;2023-04-05T08:27:43;101009.97;;;5.90;50.86
22662;BME280;11497;52.222;21.246;2023-04-05T08:30:11;101008.19;;;6.03;50.46
22662;BME280;11497;52.222;21.246;2023-04-05T08:32:39;101010.84;;;5.74;50.23
22662;BME280;11497;52.222;21.246;2023-04-05T08:35:07;101007.34;;;5.81;50.15
22662;BME280;11497;52.222;21.246;2023-04-05T08:37:35;101016.00;;;5.96;49.78
22662;BME280;11497;52.222;21.246;2023-04-05T08:40:03;101015.09;;;6.05;49.10
22662;BME280;11497;52.222;21.246;2023-04-05T08:42:41;101009.03;;;6.02;48.48
22662;BME280;11497;52.222;21.246;2023-04-05T08:45:13;101014.97;;;6.23;48.17
22662;BME280;11497;52.222;21.246;2023-04-05T08:47:41;101016.84;;;6.03;47.94
22662;BME280;11497;52.222;21.246;2023-04-05T08:50:09;101014.06;;;6.33;47.78
22662;BME280;11497;52.222;21.246;2023-04-05T08:52:37;101013.28;;;6.13;47.23
22662;BME280;11497;52.222;21.246;2023-04-05T08:55:07;101016.66;;;6.33;46.81
22662;BME280;11497;52.222;21.246;2023-04-05T08:57:36;101011.28;;;6.58;46.18
22662;BME280;11497;52.222;21.246;2023-04-05T09:00:06;101012.09;;;6.67;45.90
22662;BME280;11497;52.222;21.246;2023-04-05T09:02:34;101025.25;;;6.45;45.78
22662;BME280;11497;52.222;21.246;2023-04-05T09:05:03;101020.72;;;6.73;46.17
22662;BME280;11497;52.222;21.246;2023-04-05T09:07:35;101016.34;;;6.79;45.92
22662;BME280;11497;52.222;21.246;2023-04-05T09:10:03;101017.53;;;6.29;45.30
22662;BME280;11497;52.222;21.246;2023-04-05T09:12:33;101018.38;;;6.38;45.32
22662;BME280;11497;52.222;21.246;2023-04-05T09:15:02;101013.25;;;6.22;45.53
22662;BME280;11497;52.222;21.246;2023-04-05T09:17:29;101013.41;;;5.86;45.46
22662;BME280;11497;52.222;21.246;2023-04-05T09:19:59;101013.38;;;5.98;45.85
22662;BME280;11497;52.222;21.246;2023-04-05T09:22:26;101013.41;;;5.92;46.11
22662;BME280;11497;52.222;21.246;2023-04-05T09:24:54;101014.28;;;5.85;46.32
22662;BME280;11497;52.222;21.246;2023-04-05T09:27:23;101011.66;;;5.97;45.93
22662;BME280;11497;52.222;21.246;2023-04-05T09:29:56;101014.25;;;5.95;45.57
22662;BME280;11497;52.222;21.246;2023-04-05T09:32:24;101011.63;;;6.03;46.56
22662;BME280;11497;52.222;21.246;2023-04-05T09:34:54;101013.53;;;5.55;48.27
22662;BME280;11497;52.222;21.246;2023-04-05T09:37:29;101017.06;;;5.03;49.69
22662;BME280;11497;52.222;21.246;2023-04-05T09:40:01;101007.56;;;5.05;50.74
22662;BME280;11497;52.222;21.246;2023-04-05T09:42:31;101010.16;;;5.09;50.71
22662;BME280;11497;52.222;21.246;2023-04-05T09:45:00;101015.34;;;5.11;50.72
22662;BME280;11497;52.222;21.246;2023-04-05T09:47:33;101014.47;;;4.96;51.38
22662;BME280;11497;52.222;21.246;2023-04-05T09:52:41;101024.00;;;4.85;51.76
22662;BME280;11497;52.222;21.246;2023-04-05T09:55:09;101012.75;;;4.86;52.33
22662;BME280;11497;52.222;21.246;2023-04-05T09:57:38;101017.94;;;4.79;52.99
22662;BME280;11497;52.222;21.246;2023-04-05T10:00:16;101018.81;;;4.97;52.69
22662;BME280;11497;52.222;21.246;2023-04-05T10:02:43;101014.41;;;5.38;52.62
22662;BME280;11497;52.222;21.246;2023-04-05T10:05:14;101010.06;;;5.58;52.13
22662;BME280;11497;52.222;21.246;2023-04-05T10:07:42;101008.34;;;5.46;51.73
22662;BME280;11497;52.222;21.246;2023-04-05T10:10:10;101012.66;;;5.59;52.04
22662;BME280;11497;52.222;21.246;2023-04-05T10:12:39;101007.41;;;5.67;51.47
22662;BME280;11497;52.222;21.246;2023-04-05T10:15:09;101010.09;;;5.40;51.33
22662;BME280;11497;52.222;21.246;2023-04-05T10:20:19;101007.56;;;5.08;51.86
22662;BME280;11497;52.222;21.246;2023-04-05T10:23:00;101008.44;;;5.04;51.79
22662;BME280;11497;52.222;21.246;2023-04-05T10:28:05;101004.09;;;4.93;51.83
22662;BME280;11497;52.222;21.246;2023-04-05T10:30:39;101008.44;;;5.07;51.90
22662;BME280;11497;52.222;21.246;2023-04-05T10:33:20;101013.63;;;4.94;51.98
22662;BME280;11497;52.222;21.246;2023-04-05T10:38:21;101002.38;;;4.95;53.15
22662;BME280;11497;52.222;21.246;2023-04-05T10:40:52;100996.31;;;5.15;52.45
22662;BME280;11497;52.222;21.246;2023-04-05T10:43:22;101002.31;;;5.32;51.51
22662;BME280;11497;52.222;21.246;2023-04-05T10:45:51;100997.88;;;5.66;49.92
22662;BME280;11497;52.222;21.246;2023-04-05T10:50:53;100994.06;;;6.45;48.60
22662;BME280;11497;52.222;21.246;2023-04-05T10:53:23;100986.56;;;7.11;46.29
22662;BME280;11497;52.222;21.246;2023-04-05T10:55:52;100995.03;;;7.31;44.99
22662;BME280;11497;52.222;21.246;2023-04-05T10:58:19;100998.75;;;7.82;44.70
22662;BME280;11497;52.222;21.246;2023-04-05T11:00:49;100987.06;;;8.15;42.71
22662;BME280;11497;52.222;21.246;2023-04-05T11:08:48;100995.78;;;7.41;41.30
22662;BME280;11497;52.222;21.246;2023-04-05T11:11:17;100999.47;;;7.23;41.83
22662;BME280;11497;52.222;21.246;2023-04-05T11:13:52;101003.31;;;6.81;41.65
22662;BME280;11497;52.222;21.246;2023-04-05T11:16:20;100986.94;;;6.68;42.63
22662;BME280;11497;52.222;21.246;2023-04-05T11:18:49;100995.63;;;6.64;42.64
22662;BME280;11497;52.222;21.246;2023-04-05T11:21:24;100994.03;;;6.48;43.32
22662;BME280;11497;52.222;21.246;2023-04-05T11:24:08;100992.38;;;6.36;44.10
22662;BME280;11497;52.222;21.246;2023-04-05T11:29:14;100994.16;;;6.29;44.46
22662;BME280;11497;52.222;21.246;2023-04-05T11:32:05;100994.22;;;6.16;44.78
22662;BME280;11497;52.222;21.246;2023-04-05T11:34:36;100994.38;;;5.90;45.38
22662;BME280;11497;52.222;21.246;2023-04-05T11:37:04;100997.81;;;5.95;45.13
22662;BME280;11497;52.222;21.246;2023-04-05T11:39:32;100995.00;;;6.31;45.25
22662;BME280;11497;52.222;21.246;2023-04-05T11:44:49;100997.28;;;6.74;44.52
22662;BME280;11497;52.222;21.246;2023-04-05T11:47:18;100996.53;;;6.58;44.49
22662;BME280;11497;52.222;21.246;2023-04-05T11:49:49;100998.78;;;7.03;44.16
22662;BME280;11497;52.222;21.246;2023-04-05T11:52:19;100992.81;;;6.93;44.14
22662;BME280;11497;52.222;21.246;2023-04-05T11:54:49;100994.63;;;6.82;44.02
22662;BME280;11497;52.222;21.246;2023-04-05T11:57:18;101004.19;;;6.78;44.51
22662;BME280;11497;52.222;21.246;2023-04-05T11:59:48;101005.06;;;6.80;44.59
22662;BME280;11497;52.222;21.246;2023-04-05T12:02:16;101005.88;;;6.85;44.50
22662;BME280;11497;52.222;21.246;2023-04-05T12:06:26;101007.59;;;6.89;43.84
22662;BME280;11497;52.222;21.246;2023-04-05T12:08:54;100998.84;;;6.93;43.43
22662;BME280;11497;52.222;21.246;2023-04-05T12:11:23;101003.25;;;6.88;42.88
22662;BME280;11497;52.222;21.246;2023-04-05T12:16:28;101002.72;;;6.44;42.62
22662;BME280;11497;52.222;21.246;2023-04-05T12:18:57;101003.59;;;6.46;42.38
22662;BME280;11497;52.222;21.246;2023-04-05T12:21:26;101002.59;;;6.62;42.46
22662;BME280;11497;52.222;21.246;2023-04-05T12:23:55;100995.78;;;6.46;42.92
22662;BME280;11497;52.222;21.246;2023-04-05T12:26:23;101001.91;;;6.37;43.10
22662;BME280;11497;52.222;21.246;2023-04-05T12:28:55;100995.53;;;6.79;42.73
22662;BME280;11497;52.222;21.246;2023-04-05T12:31:43;101001.63;;;6.75;42.28
22662;BME280;11497;52.222;21.246;2023-04-05T12:34:14;100994.00;;;6.51;42.31
22662;BME280;11497;52.222;21.246;2023-04-05T12:36:45;101001.63;;;6.75;40.99
22662;BME280;11497;52.222;21.246;2023-04-05T12:39:15;100993.84;;;6.71;40.38
22662;BME280;11497;52.222;21.246;2023-04-05T12:41:43;100995.66;;;6.61;40.49
22662;BME280;11497;52.222;21.246;2023-04-05T12:44:14;100992.34;;;6.41;40.64
22662;BME280;11497;52.222;21.246;2023-04-05T12:46:48;100989.00;;;6.17;40.68
22662;BME280;11497;52.222;21.246;2023-04-05T12:49:17;100992.41;;;6.28;40.88
22662;BME280;11497;52.222;21.246;2023-04-05T12:51:46;100997.34;;;6.65;40.40
22662;BME280;11497;52.222;21.246;2023-04-05T12:54:21;100990.06;;;7.07;39.81
22662;BME280;11497;52.222;21.246;2023-04-05T12:56:50;100989.22;;;7.03;39.16
22662;BME280;11497;52.222;21.246;2023-04-05T12:59:20;101000.66;;;6.88;38.76
22662;BME280;11497;52.222;21.246;2023-04-05T13:01:48;100993.78;;;6.81;38.94
22662;BME280;11497;52.222;21.246;2023-04-05T13:04:16;100996.06;;;7.13;38.80
22662;BME280;11497;52.222;21.246;2023-04-05T13:06:44;100986.78;;;6.89;38.72
22662;BME280;11497;52.222;21.246;2023-04-05T13:09:16;100987.72;;;6.78;38.71
22662;BME280;11497;52.222;21.246;2023-04-05T13:11:44;100982.44;;;6.88;39.30
22662;BME280;11497;52.222;21.246;2023-04-05T13:14:12;100989.91;;;7.22;38.66
22662;BME280;11497;52.222;21.246;2023-04-05T13:16:40;100990.81;;;7.19;38.25
22662;BME280;11497;52.222;21.246;2023-04-05T13:19:08;100996.53;;;6.58;38.70
22662;BME280;11497;52.222;21.246;2023-04-05T13:21:36;100992.16;;;6.65;38.25
22662;BME280;11497;52.222;21.246;2023-04-05T13:24:04;100985.44;;;6.37;38.80
22662;BME280;11497;52.222;21.246;2023-04-05T13:26:31;100999.28;;;6.42;39.61
22662;BME280;11497;52.222;21.246;2023-04-05T13:28:59;100993.06;;;6.58;39.43
22662;BME280;11497;52.222;21.246;2023-04-05T13:33:47;100992.22;;;6.57;39.12
22662;BME280;11497;52.222;21.246;2023-04-05T13:36:15;100987.78;;;6.72;39.24
22662;BME280;11497;52.222;21.246;2023-04-05T13:38:43;100988.75;;;6.57;39.37